<?xml version="1.0" encoding="UTF-8" standalone="no" ?>
<gpx xmlns="http://www.topografix.com/GPX/1/1" xmlns:xsi="http://www.w3.org/2001/XMLSchema-instance" xsi:schemaLocation="http://www.topografix.com/GPX/1/1 http://www.topografix.com/GPX/1/1/gpx.xsd" version="1.1" creator="VisuGPX - https://www.visugpx.com">
  <metadata>
    <name>boucles beaumont</name>
    <desc><![CDATA[boucles beaumont du périgord]]></desc>
  </metadata>
  <trk>
    <name><![CDATA[BBmt29]]></name>
    <trkseg>
      <trkpt lat="44.8071" lon="0.83485">
        <ele>185</ele>
        <time>2008-12-16T11:30:45Z</time>
      </trkpt>
      <trkpt lat="44.80715" lon="0.83518">
        <ele>184</ele>
        <time>2008-12-16T11:30:50Z</time>
      </trkpt>
      <trkpt lat="44.80718" lon="0.8355">
        <ele>183</ele>
        <time>2008-12-16T11:30:54Z</time>
      </trkpt>
      <trkpt lat="44.80718" lon="0.83578">
        <ele>180</ele>
        <time>2008-12-16T11:30:57Z</time>
      </trkpt>
      <trkpt lat="44.80718" lon="0.83605">
        <ele>184</ele>
        <time>2008-12-16T11:31:01Z</time>
      </trkpt>
      <trkpt lat="44.80718" lon="0.83633">
        <ele>184</ele>
        <time>2008-12-16T11:31:05Z</time>
      </trkpt>
      <trkpt lat="44.80718" lon="0.83665">
        <ele>183</ele>
        <time>2008-12-16T11:31:09Z</time>
      </trkpt>
      <trkpt lat="44.8072" lon="0.83695">
        <ele>180</ele>
        <time>2008-12-16T11:31:13Z</time>
      </trkpt>
      <trkpt lat="44.8073" lon="0.83718">
        <ele>183</ele>
        <time>2008-12-16T11:31:17Z</time>
      </trkpt>
      <trkpt lat="44.80743" lon="0.83745">
        <ele>184</ele>
        <time>2008-12-16T11:31:21Z</time>
      </trkpt>
      <trkpt lat="44.80758" lon="0.83768">
        <ele>183</ele>
        <time>2008-12-16T11:31:24Z</time>
      </trkpt>
      <trkpt lat="44.80773" lon="0.83793">
        <ele>183</ele>
        <time>2008-12-16T11:31:28Z</time>
      </trkpt>
      <trkpt lat="44.80793" lon="0.8381">
        <ele>183</ele>
        <time>2008-12-16T11:31:31Z</time>
      </trkpt>
      <trkpt lat="44.8081" lon="0.83825">
        <ele>183</ele>
        <time>2008-12-16T11:31:34Z</time>
      </trkpt>
      <trkpt lat="44.80828" lon="0.8384">
        <ele>182</ele>
        <time>2008-12-16T11:31:37Z</time>
      </trkpt>
      <trkpt lat="44.80845" lon="0.83855">
        <ele>181</ele>
        <time>2008-12-16T11:31:40Z</time>
      </trkpt>
      <trkpt lat="44.8086" lon="0.8387">
        <ele>181</ele>
        <time>2008-12-16T11:31:43Z</time>
      </trkpt>
      <trkpt lat="44.80878" lon="0.83883">
        <ele>183</ele>
        <time>2008-12-16T11:31:47Z</time>
      </trkpt>
      <trkpt lat="44.80893" lon="0.839">
        <ele>183</ele>
        <time>2008-12-16T11:31:51Z</time>
      </trkpt>
      <trkpt lat="44.80908" lon="0.83925">
        <ele>182</ele>
        <time>2008-12-16T11:31:55Z</time>
      </trkpt>
      <trkpt lat="44.80925" lon="0.83943">
        <ele>180</ele>
        <time>2008-12-16T11:31:58Z</time>
      </trkpt>
      <trkpt lat="44.80943" lon="0.83958">
        <ele>178</ele>
        <time>2008-12-16T11:32:01Z</time>
      </trkpt>
      <trkpt lat="44.8096" lon="0.83973">
        <ele>176</ele>
        <time>2008-12-16T11:32:04Z</time>
      </trkpt>
      <trkpt lat="44.80978" lon="0.83988">
        <ele>176</ele>
        <time>2008-12-16T11:32:07Z</time>
      </trkpt>
      <trkpt lat="44.80995" lon="0.83998">
        <ele>176</ele>
        <time>2008-12-16T11:32:10Z</time>
      </trkpt>
      <trkpt lat="44.81015" lon="0.84003">
        <ele>174</ele>
        <time>2008-12-16T11:32:14Z</time>
      </trkpt>
      <trkpt lat="44.81033" lon="0.84018">
        <ele>175</ele>
        <time>2008-12-16T11:32:18Z</time>
      </trkpt>
      <trkpt lat="44.81048" lon="0.84035">
        <ele>181</ele>
        <time>2008-12-16T11:32:27Z</time>
      </trkpt>
      <trkpt lat="44.81063" lon="0.8405">
        <ele>179</ele>
        <time>2008-12-16T11:32:29Z</time>
      </trkpt>
      <trkpt lat="44.81088" lon="0.84058">
        <ele>174</ele>
        <time>2008-12-16T11:32:33Z</time>
      </trkpt>
      <trkpt lat="44.81108" lon="0.8406">
        <ele>170</ele>
        <time>2008-12-16T11:32:36Z</time>
      </trkpt>
      <trkpt lat="44.81128" lon="0.84065">
        <ele>165</ele>
        <time>2008-12-16T11:32:41Z</time>
      </trkpt>
      <trkpt lat="44.81153" lon="0.84068">
        <ele>163</ele>
        <time>2008-12-16T11:32:51Z</time>
      </trkpt>
      <trkpt lat="44.81173" lon="0.84068">
        <ele>162</ele>
        <time>2008-12-16T11:32:55Z</time>
      </trkpt>
      <trkpt lat="44.81178" lon="0.84115">
        <ele>162</ele>
        <time>2009-06-18T16:43:36Z</time>
      </trkpt>
      <trkpt lat="44.81173" lon="0.8414">
        <ele>165</ele>
        <time>2009-06-18T16:43:36Z</time>
      </trkpt>
      <trkpt lat="44.81178" lon="0.84168">
        <ele>164</ele>
        <time>2009-06-18T16:43:36Z</time>
      </trkpt>
      <trkpt lat="44.81183" lon="0.84193">
        <ele>159</ele>
        <time>2009-06-18T16:43:36Z</time>
      </trkpt>
      <trkpt lat="44.8119" lon="0.84218">
        <ele>151</ele>
        <time>2009-06-18T16:43:36Z</time>
      </trkpt>
      <trkpt lat="44.81193" lon="0.84245">
        <ele>155</ele>
        <time>2009-06-18T16:43:36Z</time>
      </trkpt>
      <trkpt lat="44.81203" lon="0.84268">
        <ele>158</ele>
        <time>2009-06-18T16:43:36Z</time>
      </trkpt>
      <trkpt lat="44.81213" lon="0.8429">
        <ele>157</ele>
        <time>2009-06-18T16:43:36Z</time>
      </trkpt>
      <trkpt lat="44.81218" lon="0.84315">
        <ele>159</ele>
        <time>2009-06-18T16:43:36Z</time>
      </trkpt>
      <trkpt lat="44.81225" lon="0.8434">
        <ele>164</ele>
        <time>2009-06-18T16:43:36Z</time>
      </trkpt>
      <trkpt lat="44.8123" lon="0.84365">
        <ele>162</ele>
        <time>2009-06-18T16:43:36Z</time>
      </trkpt>
      <trkpt lat="44.81235" lon="0.8439">
        <ele>159</ele>
        <time>2009-06-18T16:43:36Z</time>
      </trkpt>
      <trkpt lat="44.81238" lon="0.84418">
        <ele>157</ele>
        <time>2009-06-18T16:43:36Z</time>
      </trkpt>
      <trkpt lat="44.81238" lon="0.84445">
        <ele>156</ele>
        <time>2009-06-18T16:43:36Z</time>
      </trkpt>
      <trkpt lat="44.81235" lon="0.84473">
        <ele>155</ele>
        <time>2009-06-18T16:43:36Z</time>
      </trkpt>
      <trkpt lat="44.8124" lon="0.84498">
        <ele>151</ele>
        <time>2009-06-18T16:43:36Z</time>
      </trkpt>
      <trkpt lat="44.81245" lon="0.84525">
        <ele>149</ele>
        <time>2009-06-18T16:43:36Z</time>
      </trkpt>
      <trkpt lat="44.81245" lon="0.84553">
        <ele>156</ele>
        <time>2009-06-18T16:43:36Z</time>
      </trkpt>
      <trkpt lat="44.81245" lon="0.8458">
        <ele>155</ele>
        <time>2009-06-18T16:43:36Z</time>
      </trkpt>
      <trkpt lat="44.81243" lon="0.84608">
        <ele>161</ele>
        <time>2009-06-18T16:43:36Z</time>
      </trkpt>
      <trkpt lat="44.8124" lon="0.84635">
        <ele>163</ele>
        <time>2009-06-18T16:43:36Z</time>
      </trkpt>
      <trkpt lat="44.8124" lon="0.84663">
        <ele>162</ele>
        <time>2009-06-18T16:43:36Z</time>
      </trkpt>
      <trkpt lat="44.81238" lon="0.8469">
        <ele>159</ele>
        <time>2009-06-18T16:43:36Z</time>
      </trkpt>
      <trkpt lat="44.81245" lon="0.84715">
        <ele>162</ele>
        <time>2009-06-18T16:43:36Z</time>
      </trkpt>
      <trkpt lat="44.8124" lon="0.8474">
        <ele>166</ele>
        <time>2009-06-18T16:43:36Z</time>
      </trkpt>
      <trkpt lat="44.81238" lon="0.84768">
        <ele>164</ele>
        <time>2009-06-18T16:43:36Z</time>
      </trkpt>
      <trkpt lat="44.81243" lon="0.84793">
        <ele>163</ele>
        <time>2009-06-18T16:43:36Z</time>
      </trkpt>
      <trkpt lat="44.81243" lon="0.8482">
        <ele>161</ele>
        <time>2009-06-18T16:43:36Z</time>
      </trkpt>
      <trkpt lat="44.81233" lon="0.84845">
        <ele>166</ele>
        <time>2009-06-18T16:43:36Z</time>
      </trkpt>
      <trkpt lat="44.81223" lon="0.8487">
        <ele>167</ele>
        <time>2009-06-18T16:43:36Z</time>
      </trkpt>
      <trkpt lat="44.81215" lon="0.84895">
        <ele>165</ele>
        <time>2009-06-18T16:43:36Z</time>
      </trkpt>
      <trkpt lat="44.81205" lon="0.8492">
        <ele>159</ele>
        <time>2009-06-18T16:43:36Z</time>
      </trkpt>
    </trkseg>
  </trk>
</gpx>